createdAt,value
2019-04-30T00:00:42.658Z,79.28
2019-04-30T00:03:19.687Z,79.27
2019-04-30T00:05:49.405Z,79.34
2019-04-30T00:08:18.258Z,79.50
2019-04-30T00:10:46.755Z,79.52
2019-04-30T00:13:20.655Z,79.49
2019-04-30T00:15:47.795Z,79.36
2019-04-30T00:18:15.644Z,79.32
2019-04-30T00:20:45.336Z,79.38
2019-04-30T00:23:17.814Z,79.44
2019-04-30T00:25:46.031Z,79.50
2019-04-30T00:28:15.500Z,79.54
2019-04-30T00:30:47.707Z,79.50
2019-04-30T00:33:15.204Z,79.43
2019-04-30T00:35:45.352Z,79.44
2019-04-30T00:38:15.109Z,79.45
2019-04-30T00:40:45.060Z,79.40
2019-04-30T00:43:15.468Z,79.52
2019-04-30T00:45:47.096Z,79.55
2019-04-30T00:48:19.745Z,79.51
2019-04-30T00:50:45.750Z,79.54
2019-04-30T00:53:16.166Z,79.52
2019-04-30T00:55:48.241Z,79.48
2019-04-30T00:58:17.690Z,79.47
2019-04-30T01:00:48.725Z,79.45
2019-04-30T01:03:18.954Z,79.40
2019-04-30T01:05:47.993Z,79.48
2019-04-30T01:08:16.414Z,79.41
2019-04-30T01:10:46.009Z,79.40
2019-04-30T01:13:14.508Z,79.41
2019-04-30T01:15:43.997Z,79.36
2019-04-30T01:18:13.446Z,79.35
2019-04-30T01:20:41.981Z,79.22
2019-04-30T01:23:13.419Z,79.18
2019-04-30T01:25:43.264Z,79.24
2019-04-30T01:28:16.394Z,79.21
2019-04-30T01:30:43.400Z,79.13
2019-04-30T01:33:12.254Z,79.04
2019-04-30T01:35:40.712Z,78.97
2019-04-30T01:38:12.463Z,78.96
2019-04-30T01:40:42.931Z,78.98
2019-04-30T01:43:12.609Z,78.85
2019-04-30T01:45:40.976Z,78.76
2019-04-30T01:48:12.556Z,78.73
2019-04-30T01:50:42.071Z,78.74
2019-04-30T01:53:13.182Z,78.71
2019-04-30T01:55:59.234Z,78.71
2019-04-30T01:58:30.166Z,78.79
2019-04-30T02:01:06.380Z,78.77
2019-04-30T02:03:34.770Z,78.75
2019-04-30T02:06:03.345Z,78.72
2019-04-30T02:08:31.751Z,78.72
2019-04-30T02:11:00.144Z,78.76
2019-04-30T02:13:29.488Z,78.81
2019-04-30T02:15:59.228Z,78.80
2019-04-30T02:18:29.625Z,78.77
2019-04-30T02:20:59.482Z,78.88
2019-04-30T02:23:29.768Z,78.96
2019-04-30T02:25:59.000Z,78.95
2019-04-30T02:28:29.035Z,78.94
2019-04-30T02:30:59.987Z,78.92
2019-04-30T02:33:30.621Z,78.88
2019-04-30T02:36:10.277Z,78.92
2019-04-30T02:38:40.447Z,78.94
2019-04-30T02:41:09.939Z,79.00
2019-04-30T02:43:41.162Z,79.11
2019-04-30T02:46:11.096Z,79.25
2019-04-30T02:48:40.533Z,79.34
2019-04-30T02:51:11.439Z,79.32
2019-04-30T02:54:00.392Z,79.36
2019-04-30T02:56:30.049Z,79.48
2019-04-30T02:59:03.171Z,79.42
2019-04-30T03:01:30.540Z,79.41
2019-04-30T03:03:59.821Z,79.46
2019-04-30T03:06:30.421Z,79.47
2019-04-30T03:09:01.000Z,79.53
2019-04-30T03:11:30.081Z,79.47
2019-04-30T03:13:59.413Z,79.44
2019-04-30T03:16:45.684Z,79.38
2019-04-30T03:19:21.445Z,79.31
2019-04-30T03:21:51.757Z,79.24
2019-04-30T03:24:20.375Z,79.15
2019-04-30T03:26:50.532Z,79.21
2019-04-30T03:29:20.393Z,79.35
2019-04-30T03:31:52.397Z,79.44
2019-04-30T03:34:25.576Z,79.51
2019-04-30T03:36:50.551Z,79.52
2019-04-30T03:39:19.879Z,79.51
2019-04-30T03:41:50.208Z,79.50
2019-04-30T03:44:25.402Z,79.44
2019-04-30T03:46:49.795Z,79.35
2019-04-30T03:49:20.239Z,79.25
2019-04-30T03:51:49.903Z,79.31
2019-04-30T03:54:19.296Z,79.33
2019-04-30T03:56:50.192Z,79.38
2019-04-30T03:59:19.921Z,79.38
2019-04-30T04:01:50.185Z,79.34
2019-04-30T04:04:32.330Z,79.37
2019-04-30T04:07:20.106Z,79.47
2019-04-30T04:09:59.836Z,79.40
2019-04-30T04:12:30.475Z,79.29
2019-04-30T04:15:03.225Z,79.30
2019-04-30T04:17:31.393Z,79.40
2019-04-30T04:19:59.726Z,79.46
2019-04-30T04:22:30.702Z,79.52
2019-04-30T04:25:00.140Z,79.56
2019-04-30T04:27:30.107Z,79.67
2019-04-30T04:30:01.219Z,79.77
2019-04-30T04:32:30.902Z,79.75
2019-04-30T04:35:00.280Z,79.74
2019-04-30T04:37:30.135Z,79.78
2019-04-30T04:39:59.659Z,79.64
2019-04-30T04:42:32.457Z,79.58
2019-04-30T04:44:59.544Z,79.54
2019-04-30T04:47:30.765Z,79.47
2019-04-30T04:50:00.670Z,79.42
2019-04-30T04:52:31.391Z,79.46
2019-04-30T04:55:00.470Z,79.44
2019-04-30T04:57:30.365Z,79.49
2019-04-30T05:00:06.437Z,79.36
2019-04-30T05:02:32.622Z,79.24
2019-04-30T05:05:01.064Z,79.13
2019-04-30T05:07:31.210Z,79.01
2019-04-30T05:10:00.989Z,79.04
2019-04-30T05:12:29.879Z,78.89
2019-04-30T05:14:59.732Z,78.84
2019-04-30T05:17:29.705Z,78.74
2019-04-30T05:19:58.858Z,78.66
2019-04-30T05:22:29.147Z,78.53
2019-04-30T05:24:58.864Z,78.50
2019-04-30T05:27:27.510Z,78.43
2019-04-30T05:29:55.895Z,78.53
2019-04-30T05:32:24.311Z,78.58
2019-04-30T05:34:52.706Z,78.51
2019-04-30T05:37:22.532Z,78.40
2019-04-30T05:39:51.250Z,78.34
2019-04-30T05:42:19.650Z,78.30
2019-04-30T05:44:49.742Z,78.35
2019-04-30T05:47:19.611Z,78.28
2019-04-30T05:49:48.905Z,78.38
2019-04-30T05:52:19.676Z,78.33
2019-04-30T05:54:48.801Z,78.22
2019-04-30T05:57:19.599Z,78.10
2019-04-30T05:59:48.752Z,77.96
2019-04-30T06:02:19.430Z,77.92
2019-04-30T06:04:48.889Z,77.79
2019-04-30T06:07:18.927Z,77.78
2019-04-30T06:09:50.244Z,77.69
2019-04-30T06:12:39.254Z,77.61
2019-04-30T06:20:36.358Z,77.45
2019-04-30T06:23:44.816Z,77.44
2019-04-30T06:26:53.114Z,77.44
2019-04-30T06:30:01.531Z,77.43
2019-04-30T06:33:11.732Z,77.59
2019-04-30T06:36:19.944Z,77.82
2019-04-30T06:38:48.958Z,77.92
2019-04-30T06:41:19.823Z,77.97
2019-04-30T06:44:36.927Z,78.02
2019-04-30T06:47:39.016Z,78.18
2019-04-30T06:50:49.267Z,78.20
2019-04-30T06:53:19.215Z,78.06
2019-04-30T06:55:49.303Z,77.91
2019-04-30T06:58:20.473Z,77.96
2019-04-30T07:00:49.741Z,78.16
2019-04-30T07:03:19.445Z,78.30
2019-04-30T07:05:48.824Z,78.42
2019-04-30T07:08:42.014Z,78.57
2019-04-30T07:14:02.342Z,78.74
2019-04-30T07:16:30.736Z,78.85
2019-04-30T07:18:59.127Z,78.81
2019-04-30T07:21:31.272Z,78.84
2019-04-30T07:23:59.569Z,78.72
2019-04-30T07:26:28.941Z,78.50
2019-04-30T07:28:59.806Z,78.42
2019-04-30T07:31:29.593Z,78.56
2019-04-30T07:33:59.484Z,78.54
2019-04-30T07:36:43.323Z,78.47
2019-04-30T07:38:59.959Z,78.25
2019-04-30T07:41:30.897Z,78.01
2019-04-30T07:43:59.331Z,77.82
2019-04-30T07:46:29.765Z,77.66
2019-04-30T07:48:59.824Z,77.53
2019-04-30T07:51:32.083Z,77.49
2019-04-30T07:53:59.046Z,77.65
2019-04-30T07:56:34.923Z,77.69
2019-04-30T07:59:00.672Z,77.76
2019-04-30T08:01:32.668Z,77.88
2019-04-30T08:04:05.711Z,77.91
2019-04-30T08:06:34.206Z,77.76
2019-04-30T08:09:02.684Z,77.64
2019-04-30T08:11:34.355Z,77.55
2019-04-30T08:14:01.792Z,77.52
2019-04-30T08:16:30.387Z,77.47
2019-04-30T08:18:59.254Z,77.48
2019-04-30T08:21:28.791Z,77.53
2019-04-30T08:23:59.317Z,77.45
2019-04-30T08:26:28.670Z,77.33
2019-04-30T08:28:57.204Z,77.21
2019-04-30T08:31:25.588Z,77.12
2019-04-30T08:33:54.519Z,77.06
2019-04-30T08:36:22.960Z,77.04
2019-04-30T08:38:51.294Z,77.04
2019-04-30T08:41:19.726Z,77.02
2019-04-30T08:43:49.622Z,76.95
2019-04-30T08:46:19.016Z,76.87
2019-04-30T08:48:51.782Z,76.83
2019-04-30T08:51:19.087Z,76.83
2019-04-30T08:53:48.630Z,76.76
2019-04-30T08:56:21.584Z,76.73
2019-04-30T08:58:49.086Z,76.67
2019-04-30T09:01:19.615Z,76.68
2019-04-30T09:03:50.967Z,76.79
2019-04-30T09:06:19.641Z,76.75
2019-04-30T09:08:49.041Z,76.65
2019-04-30T09:11:25.104Z,76.66
2019-04-30T09:13:48.822Z,76.62
2019-04-30T09:16:19.271Z,76.57
2019-04-30T09:18:49.438Z,76.54
2019-04-30T09:21:18.691Z,76.46
2019-04-30T09:23:51.838Z,76.42
2019-04-30T09:26:18.708Z,76.35
2019-04-30T09:28:49.261Z,76.33
2019-04-30T09:31:17.269Z,76.33
2019-04-30T09:33:45.987Z,76.27
2019-04-30T09:36:14.378Z,76.23
2019-04-30T09:38:42.772Z,76.35
2019-04-30T09:41:11.950Z,76.34
2019-04-30T09:43:40.599Z,76.31
2019-04-30T09:46:17.872Z,76.35
2019-04-30T09:48:39.648Z,76.24
2019-04-30T09:51:10.481Z,76.29
2019-04-30T09:53:39.465Z,76.25
2019-04-30T09:56:09.558Z,76.18
2019-04-30T09:58:39.359Z,76.22
2019-04-30T10:01:09.426Z,76.22
2019-04-30T10:03:39.690Z,76.23
2019-04-30T10:06:09.001Z,76.20
2019-04-30T10:08:47.913Z,76.24
2019-04-30T10:11:18.887Z,76.23
2019-04-30T10:13:47.282Z,76.18
2019-04-30T10:16:20.128Z,76.15
2019-04-30T10:18:48.569Z,76.23
2019-04-30T10:21:18.980Z,76.29
2019-04-30T10:23:47.239Z,76.14
2019-04-30T10:26:16.033Z,76.22
2019-04-30T10:28:45.363Z,76.20
2019-04-30T10:31:13.923Z,76.22
2019-04-30T10:33:42.420Z,76.12
2019-04-30T10:36:10.829Z,76.02
2019-04-30T10:38:39.437Z,75.98
2019-04-30T10:41:08.792Z,76.00
2019-04-30T10:43:39.347Z,75.92
2019-04-30T10:46:09.557Z,75.79
2019-04-30T10:48:38.221Z,75.80
2019-04-30T10:51:06.609Z,75.79
2019-04-30T10:53:35.003Z,75.80
2019-04-30T10:56:04.382Z,75.65
2019-04-30T10:58:32.841Z,75.52
2019-04-30T11:01:01.932Z,75.50
2019-04-30T11:03:30.537Z,75.48
2019-04-30T11:05:58.937Z,75.58
2019-04-30T11:08:27.330Z,75.47
2019-04-30T11:10:56.120Z,75.41
2019-04-30T11:13:24.524Z,75.32
2019-04-30T11:15:52.923Z,75.39
2019-04-30T11:18:21.615Z,75.37
2019-04-30T11:20:50.411Z,75.28
2019-04-30T11:23:21.010Z,75.25
2019-04-30T11:25:51.082Z,75.22
2019-04-30T11:28:19.865Z,75.33
2019-04-30T11:30:50.324Z,75.24
2019-04-30T11:33:19.124Z,75.25
2019-04-30T11:35:52.835Z,75.06
2019-04-30T11:38:20.360Z,74.97
2019-04-30T11:40:48.639Z,74.95
2019-04-30T11:43:18.194Z,74.76
2019-04-30T11:45:52.741Z,74.75
2019-04-30T11:48:21.127Z,74.73
2019-04-30T11:50:49.784Z,74.60
2019-04-30T11:53:25.520Z,74.51
2019-04-30T11:55:50.315Z,74.44
2019-04-30T11:58:21.851Z,74.30
2019-04-30T12:00:49.575Z,74.23
2019-04-30T12:03:19.224Z,74.14
2019-04-30T12:05:49.137Z,73.98
2019-04-30T12:08:22.587Z,73.84
2019-04-30T12:11:08.758Z,73.86
2019-04-30T12:13:38.619Z,73.83
2019-04-30T12:16:08.705Z,73.92
2019-04-30T12:18:37.142Z,73.92
2019-04-30T12:21:05.634Z,74.04
2019-04-30T12:23:34.284Z,73.95
2019-04-30T12:26:03.198Z,73.78
2019-04-30T12:28:31.926Z,73.68
2019-04-30T12:31:00.331Z,73.67
2019-04-30T12:33:28.825Z,73.52
2019-04-30T12:35:59.445Z,73.42
2019-04-30T12:38:27.474Z,73.45
2019-04-30T12:40:55.873Z,73.51
2019-04-30T12:43:24.293Z,73.47
2019-04-30T12:46:02.799Z,73.45
2019-04-30T12:48:42.481Z,73.45
2019-04-30T12:51:24.585Z,73.20
2019-04-30T12:54:11.108Z,72.88
2019-04-30T12:56:41.147Z,72.58
2019-04-30T12:59:09.560Z,72.31
2019-04-30T13:01:39.901Z,72.02
2019-04-30T13:04:09.778Z,71.61
2019-04-30T13:06:39.010Z,71.45
2019-04-30T13:09:11.188Z,71.53
2019-04-30T13:11:40.937Z,71.57
2019-04-30T13:14:11.018Z,71.57
2019-04-30T13:16:40.027Z,71.47
2019-04-30T13:19:09.322Z,71.42
2019-04-30T13:21:39.530Z,71.11
2019-04-30T13:26:42.388Z,70.99
2019-04-30T13:29:30.067Z,70.95
2019-04-30T13:40:38.959Z,70.51
2019-04-30T13:48:30.776Z,70.62
2019-04-30T13:53:32.801Z,70.13
2019-04-30T13:56:01.252Z,70.10
2019-04-30T13:58:29.661Z,69.85
2019-04-30T14:00:58.129Z,69.68
2019-04-30T14:03:40.437Z,69.42
2019-04-30T14:06:10.483Z,69.21
2019-04-30T14:08:43.257Z,68.96
2019-04-30T14:11:11.789Z,68.72
2019-04-30T14:13:40.325Z,68.57
2019-04-30T14:16:08.851Z,68.23
2019-04-30T14:18:39.033Z,68.01
2019-04-30T14:21:09.340Z,67.96
2019-04-30T14:23:39.587Z,67.86
2019-04-30T14:26:09.567Z,67.70
2019-04-30T14:28:39.108Z,67.78
2019-04-30T14:31:07.801Z,67.78
2019-04-30T14:33:36.512Z,67.69
2019-04-30T14:36:04.973Z,67.77
2019-04-30T14:38:33.383Z,67.80
2019-04-30T14:41:02.569Z,67.84
2019-04-30T14:43:50.424Z,67.63
2019-04-30T14:46:26.199Z,67.52
2019-04-30T14:49:06.571Z,67.78
2019-04-30T14:51:36.327Z,68.31
2019-04-30T14:54:23.166Z,68.66
2019-04-30T14:57:02.701Z,68.83
2019-04-30T14:59:32.742Z,68.91
2019-04-30T15:02:02.921Z,68.99
2019-04-30T15:04:31.799Z,69.20
2019-04-30T15:07:00.270Z,69.43
2019-04-30T15:09:28.681Z,69.68
2019-04-30T15:11:58.634Z,69.96
2019-04-30T15:14:27.176Z,70.28
2019-04-30T15:16:55.545Z,70.71
2019-04-30T15:19:24.232Z,70.82
2019-04-30T15:21:52.635Z,71.02
2019-04-30T15:24:22.677Z,71.26
2019-04-30T15:26:57.692Z,71.68
2019-04-30T15:29:21.265Z,71.60
2019-04-30T15:31:49.727Z,71.98
2019-04-30T15:34:19.258Z,72.20
2019-04-30T15:36:49.288Z,72.32
2019-04-30T15:39:22.446Z,72.37
2019-04-30T15:41:50.921Z,72.65
2019-04-30T15:44:19.477Z,72.38
2019-04-30T15:46:48.066Z,72.30
2019-04-30T15:49:16.469Z,72.18
2019-04-30T15:51:44.991Z,71.89
2019-04-30T15:54:13.650Z,71.96
2019-04-30T15:56:43.797Z,72.23
2019-04-30T15:59:32.127Z,72.49
2019-04-30T16:02:02.163Z,72.58
2019-04-30T16:04:50.271Z,72.90
2019-04-30T16:07:19.631Z,73.02
2019-04-30T16:10:06.111Z,73.21
2019-04-30T16:12:48.714Z,73.46
2019-04-30T16:15:18.530Z,73.66
2019-04-30T16:17:51.241Z,73.87
2019-04-30T16:20:19.653Z,74.42
2019-04-30T16:22:49.349Z,74.87
2019-04-30T16:25:19.385Z,75.24
2019-04-30T16:27:48.131Z,75.44
2019-04-30T16:30:17.096Z,75.76
2019-04-30T16:32:45.505Z,76.21
2019-04-30T16:35:14.071Z,76.55
2019-04-30T16:37:42.515Z,76.78
2019-04-30T16:40:11.371Z,77.07
2019-04-30T16:42:39.776Z,77.34
2019-04-30T16:45:09.410Z,77.44
2019-04-30T16:47:37.878Z,77.53
2019-04-30T16:50:08.966Z,77.53
2019-04-30T16:52:39.328Z,77.35
2019-04-30T16:55:08.248Z,77.23
2019-04-30T16:57:36.915Z,77.15
2019-04-30T17:00:10.031Z,77.31
2019-04-30T17:02:40.073Z,77.49
2019-04-30T17:05:11.229Z,77.67
2019-04-30T17:07:44.548Z,77.91
2019-04-30T17:10:24.177Z,77.95
2019-04-30T17:13:00.544Z,77.99
2019-04-30T17:15:30.710Z,77.94
2019-04-30T17:17:59.131Z,77.91
2019-04-30T17:20:28.748Z,77.95
2019-04-30T17:22:59.352Z,77.92
2019-04-30T17:25:27.412Z,77.99
2019-04-30T17:27:55.837Z,77.97
2019-04-30T17:30:24.573Z,78.00
2019-04-30T17:32:53.038Z,78.04
2019-04-30T17:35:23.508Z,78.05
2019-04-30T17:37:51.909Z,77.99
2019-04-30T17:40:22.176Z,77.96
2019-04-30T17:42:50.613Z,77.96
2019-04-30T17:45:20.012Z,77.94
2019-04-30T17:47:48.448Z,77.93
2019-04-30T17:50:18.761Z,77.97
2019-04-30T17:52:47.322Z,77.98
2019-04-30T17:55:15.962Z,77.95
2019-04-30T17:57:44.388Z,77.94
2019-04-30T18:00:19.388Z,77.86
2019-04-30T18:02:45.113Z,77.74
2019-04-30T18:05:13.883Z,77.72
2019-04-30T18:07:42.363Z,77.72
2019-04-30T18:10:13.070Z,77.66
2019-04-30T18:12:41.492Z,77.59
2019-04-30T18:15:14.581Z,77.39
2019-04-30T18:17:44.694Z,77.34
2019-04-30T18:20:32.997Z,77.25
2019-04-30T18:23:19.255Z,77.02
2019-04-30T18:25:49.404Z,76.79
2019-04-30T18:28:19.096Z,76.72
2019-04-30T18:30:49.084Z,76.74
2019-04-30T18:33:17.629Z,76.85
2019-04-30T18:35:46.032Z,77.00
2019-04-30T18:38:14.509Z,77.16
2019-04-30T18:40:43.084Z,77.22
2019-04-30T18:43:11.664Z,77.28
2019-04-30T18:45:40.131Z,77.20
2019-04-30T18:48:09.733Z,77.24
2019-04-30T18:50:38.319Z,77.30
2019-04-30T18:53:08.756Z,77.22
2019-04-30T18:55:37.270Z,77.00
2019-04-30T18:58:06.010Z,76.96
2019-04-30T19:00:39.659Z,77.11
2019-04-30T19:03:08.649Z,76.97
2019-04-30T19:05:39.278Z,77.08
2019-04-30T19:08:11.923Z,77.12
2019-04-30T19:10:42.167Z,77.23
2019-04-30T19:13:29.887Z,77.34
2019-04-30T19:16:18.732Z,77.40
2019-04-30T19:18:31.756Z,77.42
2019-04-30T19:21:01.792Z,77.50
2019-04-30T19:23:32.469Z,77.57
2019-04-30T19:26:00.875Z,77.71
2019-04-30T19:28:29.271Z,77.83
2019-04-30T19:31:00.840Z,77.84
2019-04-30T19:33:29.215Z,77.84
2019-04-30T19:35:58.687Z,77.75
2019-04-30T19:38:27.100Z,77.89
2019-04-30T19:40:55.504Z,77.91
2019-04-30T19:43:23.908Z,77.78
2019-04-30T19:45:52.344Z,77.56
2019-04-30T19:48:20.733Z,77.39
2019-04-30T19:50:49.140Z,77.38
2019-04-30T19:53:21.822Z,77.43
2019-04-30T19:55:49.256Z,77.44
2019-04-30T19:58:26.214Z,77.50
2019-04-30T20:00:49.848Z,77.61
2019-04-30T20:03:19.757Z,77.72
2019-04-30T20:05:49.352Z,77.81
2019-04-30T20:08:19.719Z,77.92
2019-04-30T20:10:49.629Z,77.96
2019-04-30T20:13:30.851Z,77.90
2019-04-30T20:15:49.368Z,77.81
2019-04-30T20:18:19.051Z,77.76
2019-04-30T20:20:51.875Z,77.70
2019-04-30T20:23:19.708Z,77.60
2019-04-30T20:25:48.184Z,77.56
2019-04-30T20:28:16.593Z,77.55
2019-04-30T20:30:45.004Z,77.60
2019-04-30T20:33:13.493Z,77.50
2019-04-30T20:35:41.900Z,77.41
2019-04-30T20:38:27.876Z,77.27
2019-04-30T20:41:00.095Z,77.19
2019-04-30T20:43:28.434Z,76.98
2019-04-30T20:45:58.642Z,76.87
2019-04-30T20:48:26.728Z,76.74
2019-04-30T20:50:55.129Z,76.68
2019-04-30T20:53:23.712Z,76.64
2019-04-30T20:55:52.108Z,76.48
2019-04-30T20:58:20.510Z,76.32
2019-04-30T21:01:00.552Z,75.96
2019-04-30T21:03:19.669Z,75.47
2019-04-30T21:05:48.360Z,75.15
2019-04-30T21:08:16.953Z,74.71
2019-04-30T21:10:45.364Z,74.44
2019-04-30T21:13:13.769Z,74.07
2019-04-30T21:15:44.063Z,73.64
2019-04-30T21:18:12.456Z,73.42
2019-04-30T21:20:40.856Z,73.12
2019-04-30T21:23:09.511Z,73.01
2019-04-30T21:25:38.754Z,72.80
2019-04-30T21:28:07.249Z,72.71
2019-04-30T21:30:36.319Z,72.57
2019-04-30T21:33:12.134Z,72.29
2019-04-30T21:35:42.204Z,72.21
2019-04-30T21:38:10.606Z,72.18
2019-04-30T21:40:39.439Z,72.16
2019-04-30T21:43:08.380Z,72.27
2019-04-30T21:45:36.784Z,72.37
2019-04-30T21:48:05.591Z,72.43
2019-04-30T21:50:34.343Z,72.73
2019-04-30T21:53:02.734Z,73.14
2019-04-30T21:55:31.133Z,73.51
2019-04-30T21:57:59.672Z,73.78
2019-04-30T22:00:30.046Z,73.90
2019-04-30T22:02:59.816Z,73.98
2019-04-30T22:05:28.336Z,74.11
2019-04-30T22:07:59.061Z,74.11
2019-04-30T22:10:26.866Z,74.12
2019-04-30T22:12:55.307Z,74.06
2019-04-30T22:15:26.496Z,74.00
2019-04-30T22:17:54.892Z,74.29
2019-04-30T22:20:23.508Z,74.27
2019-04-30T22:22:51.904Z,74.31
2019-04-30T22:25:20.292Z,74.24
2019-04-30T22:27:48.709Z,74.29
2019-04-30T22:30:17.370Z,74.43
2019-04-30T22:32:45.768Z,74.41
2019-04-30T22:35:28.322Z,74.55
2019-04-30T22:37:59.236Z,74.36
2019-04-30T22:40:29.043Z,74.20
2019-04-30T22:42:59.339Z,74.32
2019-04-30T22:45:29.455Z,74.42
2019-04-30T22:47:58.898Z,74.44
2019-04-30T22:50:27.457Z,74.26
2019-04-30T22:52:55.852Z,74.43
2019-04-30T22:55:24.260Z,74.57
2019-04-30T22:57:52.692Z,74.59
2019-04-30T23:00:24.414Z,74.75
2019-04-30T23:03:00.104Z,74.92
2019-04-30T23:05:28.585Z,74.97
2019-04-30T23:07:56.980Z,74.98
2019-04-30T23:10:25.402Z,74.85
2019-04-30T23:12:53.873Z,74.91
2019-04-30T23:15:22.332Z,74.76
2019-04-30T23:17:51.109Z,74.68
2019-04-30T23:20:19.831Z,74.60
2019-04-30T23:22:48.226Z,74.68
2019-04-30T23:25:17.167Z,74.68
2019-04-30T23:27:45.564Z,74.72
2019-04-30T23:30:14.601Z,74.74
2019-04-30T23:32:43.251Z,74.85
2019-04-30T23:35:12.481Z,74.85
2019-04-30T23:37:40.945Z,74.82
2019-04-30T23:40:27.593Z,74.91
2019-04-30T23:42:56.403Z,75.03
2019-04-30T23:45:25.106Z,74.98
2019-04-30T23:47:53.660Z,75.02
2019-04-30T23:50:22.126Z,75.04
2019-04-30T23:52:50.527Z,75.13
2019-04-30T23:55:19.073Z,75.13
2019-04-30T23:57:47.471Z,75.21
